Time;durP1;ratioP1;P1;durP2;ratioP2;P2;SDS_P1;SDS_P2;PMS_P1;PMS_P2;Temp;Humidity;BMP_temperature;BMP_pressure;BME280_temperature;BME280_humidity;BME280_pressure;Samples;Min_cycle;Max_cycle;Signal;HPM_P1;HPM_P2
2021/03/06 00:01:41;;;;;;;11.17;8.23;;;0.00;99.90;;;;;;5084069;28;20210;-78
2021/03/06 00:04:08;;;;;;;11.80;9.13;;;-0.10;99.90;;;;;;5093232;28;20258;-77
2021/03/06 00:06:34;;;;;;;11.60;8.40;;;-0.10;99.90;;;;;;5083768;28;20314;-78
2021/03/06 00:09:01;;;;;;;14.83;8.93;;;-0.10;99.90;;;;;;5088936;28;20233;-77
2021/03/06 00:11:27;;;;;;;11.70;8.70;;;-0.30;99.90;;;;;;5093512;28;20206;-77
2021/03/06 00:13:53;;;;;;;13.47;9.10;;;-0.20;99.90;;;;;;5079951;28;20624;-77
2021/03/06 00:16:20;;;;;;;10.97;8.57;;;-0.30;99.90;;;;;;5078583;28;20716;-77
2021/03/06 00:18:46;;;;;;;12.47;8.27;;;-0.40;99.90;;;;;;5093401;28;20224;-77
2021/03/06 00:21:13;;;;;;;12.03;9.17;;;-0.30;99.90;;;;;;5093375;28;20253;-77
2021/03/06 00:23:40;;;;;;;15.30;8.10;;;-0.20;99.90;;;;;;5093162;28;21049;-77
2021/03/06 00:26:06;;;;;;;9.43;7.73;;;0.00;99.90;;;;;;5079117;28;20640;-77
2021/03/06 00:28:32;;;;;;;12.33;9.00;;;0.00;99.90;;;;;;5093372;28;20256;-77
2021/03/06 00:30:59;;;;;;;14.53;8.80;;;-0.10;99.90;;;;;;5078759;28;20267;-79
2021/03/06 00:33:25;;;;;;;12.40;8.93;;;-0.20;99.90;;;;;;5093280;28;20194;-80
2021/03/06 00:35:52;;;;;;;13.33;7.57;;;-0.20;99.90;;;;;;5093204;28;20260;-78
2021/03/06 00:38:19;;;;;;;18.10;8.83;;;-0.20;99.90;;;;;;5088445;28;20210;-79
2021/03/06 00:40:45;;;;;;;13.23;7.77;;;-0.20;99.90;;;;;;5086807;28;20290;-78
2021/03/06 00:43:11;;;;;;;13.70;8.77;;;-0.10;99.90;;;;;;5085946;28;20213;-78
2021/03/06 00:45:38;;;;;;;15.97;8.87;;;-0.40;99.90;;;;;;5077836;28;20285;-79
2021/03/06 00:48:05;;;;;;;13.57;8.87;;;-0.20;99.90;;;;;;5077189;28;20279;-78
2021/03/06 00:50:36;;;;;;;12.10;7.97;;;-0.20;99.90;;;;;;5093607;28;20288;-78
2021/03/06 00:53:03;;;;;;;12.13;8.23;;;-0.20;99.90;;;;;;5096817;28;20198;-79
2021/03/06 00:55:30;;;;;;;9.73;8.33;;;-0.10;99.90;;;;;;5080403;28;20210;-78
2021/03/06 00:57:57;;;;;;;15.80;7.77;;;-0.10;99.90;;;;;;5084593;28;20202;-78
2021/03/06 01:00:23;;;;;;;14.67;7.73;;;-0.10;99.90;;;;;;5096423;28;20288;-80
2021/03/06 01:02:50;;;;;;;10.77;7.93;;;-0.10;99.90;;;;;;5076274;28;20207;-78
2021/03/06 01:05:16;;;;;;;12.43;7.93;;;0.00;99.90;;;;;;5089224;28;20270;-78
2021/03/06 01:07:43;;;;;;;13.10;8.37;;;0.00;99.90;;;;;;5096561;28;20233;-78
2021/03/06 01:10:12;;;;;;;11.40;7.87;;;0.00;99.90;;;;;;5085959;28;20293;-78
2021/03/06 01:12:40;;;;;;;12.27;8.10;;;0.00;99.90;;;;;;5090618;28;20207;-78
2021/03/06 01:15:07;;;;;;;10.60;7.93;;;-0.10;99.90;;;;;;5086561;28;20208;-78
2021/03/06 01:17:34;;;;;;;18.17;8.43;;;-0.10;99.90;;;;;;5094840;28;20533;-78
2021/03/06 01:20:00;;;;;;;20.63;10.57;;;-0.10;99.90;;;;;;5084105;28;20237;-78
2021/03/06 01:22:27;;;;;;;18.10;11.53;;;-0.20;99.90;;;;;;5096826;28;20186;-78
2021/03/06 01:24:54;;;;;;;13.57;8.63;;;-0.30;99.90;;;;;;5096157;28;20300;-79
2021/03/06 01:27:20;;;;;;;14.03;8.13;;;-0.40;99.90;;;;;;5096083;28;20679;-79
2021/03/06 01:29:47;;;;;;;10.37;8.00;;;-0.50;99.90;;;;;;5081975;28;20212;-79
2021/03/06 01:32:14;;;;;;;13.20;8.67;;;-0.50;99.90;;;;;;5085562;28;20203;-78
2021/03/06 01:34:40;;;;;;;12.57;9.17;;;-0.60;99.90;;;;;;5078395;28;20565;-79
2021/03/06 01:37:06;;;;;;;11.20;8.67;;;-0.60;99.90;;;;;;5095961;28;20194;-79
2021/03/06 01:39:33;;;;;;;14.50;9.40;;;-0.60;99.90;;;;;;5096370;28;20285;-79
2021/03/06 01:41:59;;;;;;;15.57;10.03;;;-0.50;99.90;;;;;;5093452;28;20202;-79
2021/03/06 01:44:26;;;;;;;13.90;9.27;;;-0.50;99.90;;;;;;5084773;28;20237;-79
2021/03/06 01:46:53;;;;;;;13.17;9.07;;;-0.50;99.90;;;;;;5095630;28;20232;-79
2021/03/06 01:49:19;;;;;;;13.17;8.70;;;-0.50;99.90;;;;;;5095711;28;20198;-79
2021/03/06 01:51:46;;;;;;;15.23;10.30;;;-0.50;99.90;;;;;;5095839;28;20204;-79
2021/03/06 01:54:13;;;;;;;21.13;10.87;;;-0.70;99.90;;;;;;5095517;28;20239;-79
2021/03/06 01:56:40;;;;;;;15.47;10.53;;;-0.70;99.90;;;;;;5095131;28;20680;-79
2021/03/06 01:59:07;;;;;;;11.77;9.07;;;-0.80;99.90;;;;;;5081357;28;20232;-78
2021/03/06 02:01:33;;;;;;;15.80;10.70;;;-0.90;99.90;;;;;;5095126;28;20198;-79
2021/03/06 02:04:00;;;;;;;17.63;10.17;;;-0.90;99.90;;;;;;5095152;28;20236;-78
2021/03/06 02:06:27;;;;;;;16.27;10.70;;;-1.00;99.90;;;;;;5086954;28;20271;-78
2021/03/06 02:08:54;;;;;;;17.40;11.07;;;-1.00;99.90;;;;;;5089441;28;20251;-79
2021/03/06 02:11:33;;;;;;;18.90;12.23;;;-1.10;99.90;;;;;;5095497;28;20199;-78
2021/03/06 02:14:16;;;;;;;19.83;10.63;;;-1.10;99.90;;;;;;5080937;28;20251;-79
2021/03/06 02:16:49;;;;;;;17.77;9.97;;;-1.10;99.90;;;;;;5083740;28;20248;-78
2021/03/06 02:19:40;;;;;;;15.50;10.77;;;-1.10;99.90;;;;;;5095356;28;20657;-78
2021/03/06 02:22:25;;;;;;;16.37;10.53;;;-1.10;99.90;;;;;;5095271;28;20198;-78
2021/03/06 02:25:11;;;;;;;16.27;10.60;;;-1.00;99.90;;;;;;5095183;28;20550;-79
2021/03/06 02:27:52;;;;;;;15.20;10.47;;;-1.00;99.90;;;;;;5094572;28;20210;-78
2021/03/06 02:30:21;;;;;;;15.13;10.63;;;-1.00;99.90;;;;;;5100638;28;20209;-78
2021/03/06 02:32:48;;;;;;;18.90;11.17;;;-1.10;99.90;;;;;;5094961;28;20201;-77
2021/03/06 02:35:16;;;;;;;14.17;10.73;;;-1.00;99.90;;;;;;5094838;28;20202;-77
2021/03/06 02:37:46;;;;;;;14.80;10.40;;;-1.20;99.90;;;;;;5094422;28;20206;-77
2021/03/06 02:40:15;;;;;;;14.67;10.33;;;-1.10;99.90;;;;;;5094622;28;20194;-77
2021/03/06 02:42:42;;;;;;;14.10;10.47;;;-1.10;99.90;;;;;;5094541;28;20203;-77
2021/03/06 02:45:11;;;;;;;15.43;10.67;;;-1.10;99.90;;;;;;5094426;28;20202;-77
2021/03/06 02:47:38;;;;;;;15.27;10.10;;;-1.10;99.90;;;;;;5094038;28;20211;-77
2021/03/06 02:50:08;;;;;;;15.37;10.30;;;-1.20;99.90;;;;;;5094441;28;20297;-77
2021/03/06 02:52:34;;;;;;;15.27;10.37;;;-1.20;99.90;;;;;;5094367;28;20202;-77
2021/03/06 02:55:01;;;;;;;12.70;10.70;;;-1.20;99.90;;;;;;5094280;28;20285;-78
2021/03/06 02:57:41;;;;;;;16.80;10.43;;;-1.20;99.90;;;;;;5080023;28;20208;-77
2021/03/06 03:00:21;;;;;;;15.77;10.13;;;-1.30;99.90;;;;;;5094264;28;20246;-82
2021/03/06 03:03:00;;;;;;;14.10;9.60;;;-1.30;99.90;;;;;;5082275;28;20200;-77
2021/03/06 03:05:33;;;;;;;13.97;10.07;;;-1.40;99.90;;;;;;5093709;28;20216;-77
2021/03/06 03:08:05;;;;;;;16.00;9.80;;;-1.40;99.90;;;;;;5093357;28;20284;-77
2021/03/06 03:10:35;;;;;;;15.50;10.20;;;-1.40;99.90;;;;;;5094225;28;20290;-77
2021/03/06 03:13:09;;;;;;;14.67;9.63;;;-1.30;99.90;;;;;;5094253;28;20289;-77
2021/03/06 03:15:39;;;;;;;18.37;10.13;;;-1.40;99.90;;;;;;5093700;28;20202;-77
2021/03/06 03:18:14;;;;;;;19.07;9.97;;;-1.40;99.90;;;;;;5094043;28;20549;-77
2021/03/06 03:20:45;;;;;;;17.73;12.17;;;-1.50;99.90;;;;;;5093688;28;20201;-77
2021/03/06 03:23:15;;;;;;;20.00;11.80;;;-1.50;99.90;;;;;;5093961;28;20579;-76
2021/03/06 03:25:43;;;;;;;21.93;11.07;;;-1.60;99.90;;;;;;5093653;28;20214;-79
2021/03/06 03:28:11;;;;;;;12.10;10.70;;;-1.60;99.90;;;;;;5093549;28;20287;-77
2021/03/06 03:30:38;;;;;;;16.93;11.03;;;-1.60;99.90;;;;;;5093808;28;20207;-77
2021/03/06 03:33:09;;;;;;;23.53;16.07;;;-1.60;99.90;;;;;;5093189;28;20720;-76
2021/03/06 03:35:38;;;;;;;17.83;12.17;;;-1.60;99.90;;;;;;5093441;28;20646;-76
2021/03/06 03:38:05;;;;;;;15.73;12.00;;;-1.50;99.90;;;;;;5092986;28;20217;-76
2021/03/06 03:40:33;;;;;;;19.93;12.67;;;-1.70;99.90;;;;;;5093018;28;20203;-79
2021/03/06 03:43:00;;;;;;;17.60;13.03;;;-1.70;99.90;;;;;;5093060;28;20202;-76
2021/03/06 03:45:28;;;;;;;21.13;11.90;;;-1.70;99.90;;;;;;5093007;28;20197;-78
2021/03/06 03:47:54;;;;;;;20.83;13.67;;;-1.80;99.90;;;;;;5093196;28;20221;-76
2021/03/06 03:50:23;;;;;;;19.87;12.73;;;-1.80;99.90;;;;;;5079297;28;20212;-77
2021/03/06 03:52:50;;;;;;;18.03;12.33;;;-1.80;99.90;;;;;;5093050;28;20289;-77
2021/03/06 03:55:18;;;;;;;19.27;13.47;;;-1.80;99.90;;;;;;5093039;28;20281;-76
2021/03/06 03:57:45;;;;;;;20.33;12.53;;;-1.80;99.90;;;;;;5093564;28;20201;-76
2021/03/06 04:00:14;;;;;;;16.10;12.57;;;-1.90;99.90;;;;;;5093130;28;20552;-76
2021/03/06 04:02:41;;;;;;;18.63;13.17;;;-1.80;99.90;;;;;;5092966;28;20228;-76
2021/03/06 04:05:09;;;;;;;21.50;13.63;;;-1.90;99.90;;;;;;5092985;28;20205;-76
2021/03/06 04:07:44;;;;;;;23.30;14.00;;;-1.80;99.90;;;;;;5092772;28;20573;-76
2021/03/06 04:10:13;;;;;;;19.67;13.93;;;-1.80;99.90;;;;;;5092957;28;20212;-76
2021/03/06 04:12:40;;;;;;;20.07;13.67;;;-1.80;99.90;;;;;;5093232;28;20285;-76
2021/03/06 04:15:08;;;;;;;18.57;14.87;;;-1.80;99.90;;;;;;5093178;28;20275;-76
2021/03/06 04:17:35;;;;;;;22.00;13.13;;;-1.70;99.90;;;;;;5078761;28;20734;-76
2021/03/06 04:20:02;;;;;;;17.60;13.37;;;-1.80;99.90;;;;;;5096027;28;20204;-76
2021/03/06 04:22:28;;;;;;;18.10;13.50;;;-1.70;99.90;;;;;;5096614;28;20679;-76
2021/03/06 04:24:56;;;;;;;21.97;13.43;;;-1.70;99.90;;;;;;5096890;28;20198;-76
2021/03/06 04:27:22;;;;;;;23.90;14.40;;;-1.80;99.90;;;;;;5096948;28;20350;-76
2021/03/06 04:29:49;;;;;;;22.70;14.17;;;-1.70;99.90;;;;;;5097050;28;20202;-76
2021/03/06 04:32:15;;;;;;;23.13;13.47;;;-1.40;99.90;;;;;;5096527;28;20213;-76
2021/03/06 04:34:41;;;;;;;19.13;13.07;;;-1.70;99.90;;;;;;5096956;28;20204;-75
2021/03/06 04:37:08;;;;;;;21.13;13.70;;;-1.80;99.90;;;;;;5096520;28;20212;-76
2021/03/06 04:39:34;;;;;;;18.33;12.97;;;-1.80;99.90;;;;;;5096525;28;20209;-77
2021/03/06 04:42:01;;;;;;;18.13;13.67;;;-1.80;99.90;;;;;;5096946;28;20288;-76
2021/03/06 04:44:28;;;;;;;18.53;12.83;;;-1.80;99.90;;;;;;5096819;28;20253;-76
2021/03/06 04:46:55;;;;;;;20.27;13.77;;;-1.80;99.90;;;;;;5096447;28;20222;-76
2021/03/06 04:49:21;;;;;;;16.87;12.70;;;-1.80;99.90;;;;;;5096834;28;20198;-77
2021/03/06 04:51:48;;;;;;;19.37;13.17;;;-1.90;99.90;;;;;;5095823;28;20194;-75
2021/03/06 04:54:14;;;;;;;16.37;13.23;;;-1.90;99.90;;;;;;5096291;28;20218;-75
2021/03/06 04:56:40;;;;;;;17.17;12.37;;;-1.90;99.90;;;;;;5095947;28;20556;-75
2021/03/06 04:59:07;;;;;;;24.43;13.33;;;-1.90;99.90;;;;;;5096136;28;20201;-76
2021/03/06 05:01:34;;;;;;;21.73;14.10;;;-1.80;99.90;;;;;;5096208;28;20285;-75
2021/03/06 05:04:00;;;;;;;20.03;13.93;;;-1.80;99.90;;;;;;5096239;28;20202;-75
2021/03/06 05:06:26;;;;;;;17.47;13.53;;;-1.80;99.90;;;;;;5096352;28;20257;-75
2021/03/06 05:08:53;;;;;;;17.27;13.80;;;-1.80;99.90;;;;;;5095936;28;20206;-77
2021/03/06 05:11:19;;;;;;;19.00;13.60;;;-1.70;99.90;;;;;;5095899;28;20194;-76
2021/03/06 05:13:45;;;;;;;20.23;13.53;;;-1.90;99.90;;;;;;5096066;28;20206;-75
2021/03/06 05:16:13;;;;;;;20.27;12.87;;;-1.80;99.90;;;;;;5095814;28;20578;-75
2021/03/06 05:18:40;;;;;;;17.83;13.77;;;-1.80;99.90;;;;;;5095712;28;20289;-76
2021/03/06 05:21:06;;;;;;;20.43;12.07;;;-1.90;99.90;;;;;;5095979;28;20202;-76
2021/03/06 05:23:32;;;;;;;23.73;14.50;;;-1.80;99.90;;;;;;5095725;28;20288;-75
2021/03/06 05:25:58;;;;;;;18.60;13.90;;;-1.90;99.90;;;;;;5095471;28;20289;-76
2021/03/06 05:28:25;;;;;;;17.43;12.90;;;-2.00;99.90;;;;;;5096430;28;20214;-76
2021/03/06 05:30:52;;;;;;;22.20;14.07;;;-1.90;99.90;;;;;;5094332;28;20667;-77
2021/03/06 05:33:20;;;;;;;21.13;16.10;;;-2.00;99.90;;;;;;5095783;28;20198;-75
2021/03/06 05:35:46;;;;;;;22.60;16.80;;;-1.90;99.90;;;;;;5095456;28;20288;-78
2021/03/06 05:38:13;;;;;;;20.63;17.67;;;-1.80;99.90;;;;;;5095397;28;20285;-76
2021/03/06 05:40:40;;;;;;;22.20;16.43;;;-1.70;99.90;;;;;;5095707;28;20606;-75
2021/03/06 05:43:07;;;;;;;23.70;14.73;;;-1.70;99.90;;;;;;5095133;28;20202;-77
2021/03/06 05:45:34;;;;;;;26.40;17.47;;;-1.80;99.90;;;;;;5095646;28;20202;-77
2021/03/06 05:48:02;;;;;;;22.33;16.10;;;-1.80;99.90;;;;;;5094857;28;20263;-79
2021/03/06 05:50:30;;;;;;;23.60;15.37;;;-1.90;99.90;;;;;;5095470;28;20190;-78
2021/03/06 05:52:57;;;;;;;19.27;16.30;;;-2.00;99.90;;;;;;5095437;28;20198;-78
2021/03/06 05:55:26;;;;;;;18.90;14.60;;;-2.00;99.90;;;;;;5095151;28;20202;-79
2021/03/06 05:57:54;;;;;;;21.73;16.23;;;-2.10;99.90;;;;;;5095298;28;20210;-77
2021/03/06 06:00:21;;;;;;;21.53;14.90;;;-2.10;99.90;;;;;;5095149;28;20194;-77
2021/03/06 06:02:48;;;;;;;22.73;14.70;;;-2.10;99.90;;;;;;5095156;28;20202;-78
2021/03/06 06:05:16;;;;;;;20.97;16.30;;;-2.20;99.90;;;;;;5094702;28;20250;-77
2021/03/06 06:07:44;;;;;;;23.00;16.20;;;-2.10;99.90;;;;;;5095142;28;20221;-77
2021/03/06 06:10:12;;;;;;;20.73;14.83;;;-2.20;99.90;;;;;;5094543;28;20194;-78
2021/03/06 06:12:42;;;;;;;20.33;15.17;;;-2.20;99.90;;;;;;5095380;28;20216;-77
2021/03/06 06:15:10;;;;;;;24.40;16.27;;;-2.30;99.90;;;;;;5094912;28;20205;-82
2021/03/06 06:17:36;;;;;;;22.37;16.40;;;-2.30;99.90;;;;;;5094807;28;20688;-77
2021/03/06 06:20:03;;;;;;;21.73;16.17;;;-2.30;99.90;;;;;;5094979;28;20218;-78
2021/03/06 06:22:30;;;;;;;18.33;14.43;;;-2.30;99.90;;;;;;5094464;28;20564;-78
2021/03/06 06:24:57;;;;;;;20.80;15.40;;;-2.30;99.90;;;;;;5094872;28;20198;-78
2021/03/06 06:27:25;;;;;;;23.40;15.87;;;-2.20;99.90;;;;;;5094117;28;20708;-78
2021/03/06 06:29:54;;;;;;;21.00;15.20;;;-2.20;99.90;;;;;;5094164;28;20224;-76
2021/03/06 06:32:22;;;;;;;25.73;17.10;;;-2.20;99.90;;;;;;5094256;28;20262;-76
2021/03/06 06:35:00;;;;;;;23.83;17.30;;;-2.10;99.90;;;;;;5094712;28;20289;-76
2021/03/06 06:37:28;;;;;;;24.67;17.40;;;-2.00;99.90;;;;;;5093959;28;20652;-76
2021/03/06 06:39:54;;;;;;;33.73;25.07;;;-2.00;99.90;;;;;;5093947;28;20706;-76
2021/03/06 06:42:31;;;;;;;31.57;23.37;;;-2.10;99.90;;;;;;5093974;28;20210;-76
2021/03/06 06:44:58;;;;;;;26.00;20.67;;;-1.90;99.90;;;;;;5094106;28;20198;-76
2021/03/06 06:47:34;;;;;;;28.20;20.93;;;-1.80;99.90;;;;;;5093900;28;20259;-76
2021/03/06 06:50:00;;;;;;;23.80;18.47;;;-1.50;99.90;;;;;;5093969;28;20197;-77
2021/03/06 06:52:36;;;;;;;26.07;18.77;;;-1.30;99.90;;;;;;5094164;28;20657;-77
2021/03/06 06:55:04;;;;;;;20.37;15.37;;;-1.00;99.90;;;;;;5093673;28;20584;-77
2021/03/06 06:57:31;;;;;;;16.63;12.63;;;-0.70;99.90;;;;;;5093987;28;20197;-77
2021/03/06 06:59:59;;;;;;;20.03;14.67;;;-0.50;99.90;;;;;;5094017;28;20221;-77
2021/03/06 07:02:26;;;;;;;20.47;14.03;;;-0.30;99.90;;;;;;5094145;28;20595;-77
2021/03/06 07:04:54;;;;;;;22.03;13.83;;;-0.20;99.90;;;;;;5093808;28;20206;-78
2021/03/06 07:07:23;;;;;;;20.97;13.33;;;0.00;99.90;;;;;;5079467;28;20756;-77
2021/03/06 07:10:05;;;;;;;16.80;12.77;;;0.10;99.90;;;;;;5094095;28;20202;-78
2021/03/06 07:12:34;;;;;;;14.47;12.37;;;0.60;99.90;;;;;;5080051;28;20668;-78
2021/03/06 07:15:02;;;;;;;16.17;12.07;;;1.10;99.90;;;;;;5093733;28;20202;-78
2021/03/06 07:17:39;;;;;;;16.83;11.47;;;1.40;99.90;;;;;;5094156;28;20217;-78
2021/03/06 07:20:08;;;;;;;14.10;12.10;;;1.60;99.90;;;;;;5094196;28;20212;-78
2021/03/06 07:22:34;;;;;;;16.07;11.77;;;1.80;99.90;;;;;;5093922;28;20273;-78
2021/03/06 07:25:01;;;;;;;12.13;10.00;;;2.20;99.90;;;;;;5093548;28;20209;-77
2021/03/06 07:27:28;;;;;;;16.10;11.33;;;2.60;99.90;;;;;;5093954;28;20214;-77
2021/03/06 07:29:55;;;;;;;13.63;10.47;;;2.90;99.90;;;;;;5094147;28;20210;-78
2021/03/06 07:32:28;;;;;;;19.27;10.27;;;3.10;99.90;;;;;;5093744;28;20202;-78
2021/03/06 07:35:00;;;;;;;19.87;10.60;;;3.50;99.90;;;;;;5094113;28;20213;-77
2021/03/06 07:37:28;;;;;;;18.30;9.63;;;4.10;99.90;;;;;;5093862;28;20241;-77
2021/03/06 07:39:57;;;;;;;18.60;10.60;;;4.00;99.90;;;;;;5093401;28;20310;-78
2021/03/06 07:42:30;;;;;;;14.10;9.90;;;3.70;99.90;;;;;;5093981;28;20225;-78
2021/03/06 07:44:57;;;;;;;17.13;9.63;;;4.10;99.90;;;;;;5093818;28;20205;-80
2021/03/06 07:47:30;;;;;;;17.93;9.63;;;4.60;99.90;;;;;;5093219;28;20718;-79
2021/03/06 07:49:59;;;;;;;15.13;9.87;;;5.00;99.90;;;;;;5093816;28;20198;-78
2021/03/06 07:52:26;;;;;;;16.80;10.60;;;5.30;99.90;;;;;;5093662;28;20206;-84
2021/03/06 07:54:53;;;;;;;12.77;9.60;;;5.30;99.90;;;;;;5092764;28;20206;-78
2021/03/06 07:57:20;;;;;;;14.70;10.03;;;5.10;99.90;;;;;;5093367;28;20202;-77
2021/03/06 07:59:50;;;;;;;15.90;10.80;;;5.30;99.90;;;;;;5093345;28;20653;-78
2021/03/06 08:02:37;;;;;;;15.90;11.20;;;5.10;99.90;;;;;;5079691;28;20201;-78
2021/03/06 08:05:33;;;;;;;12.93;10.37;;;5.70;99.90;;;;;;5093209;28;20202;-78
2021/03/06 08:07:59;;;;;;;12.63;9.53;;;6.10;99.90;;;;;;5093531;28;20230;-78
2021/03/06 08:10:26;;;;;;;13.97;9.70;;;6.40;99.90;;;;;;5092907;28;20198;-78
2021/03/06 08:12:52;;;;;;;15.17;9.73;;;6.30;99.90;;;;;;5093179;28;20209;-78
2021/03/06 08:15:32;;;;;;;14.73;9.40;;;7.10;99.90;;;;;;5093425;28;20202;-78
2021/03/06 08:18:00;;;;;;;11.20;8.67;;;7.10;99.90;;;;;;5093580;28;20280;-78
2021/03/06 08:20:29;;;;;;;13.57;9.87;;;6.80;99.90;;;;;;5092885;28;20637;-77
2021/03/06 08:23:22;;;;;;;21.47;10.13;;;6.70;99.90;;;;;;5093063;28;20233;-78
2021/03/06 08:25:50;;;;;;;10.23;9.23;;;6.80;99.90;;;;;;5093326;28;20589;-78
2021/03/06 08:28:27;;;;;;;10.60;8.63;;;7.30;99.90;;;;;;5093146;28;20230;-78
2021/03/06 08:30:54;;;;;;;11.43;9.17;;;7.10;99.90;;;;;;5093390;28;20222;-78
2021/03/06 08:33:21;;;;;;;10.57;9.37;;;7.10;99.90;;;;;;5092876;28;20202;-79
2021/03/06 08:35:48;;;;;;;12.40;8.87;;;7.60;99.90;;;;;;5092603;28;20267;-78
2021/03/06 08:38:28;;;;;;;12.97;8.77;;;8.10;99.90;;;;;;5093023;28;20669;-79
2021/03/06 08:40:55;;;;;;;12.83;8.73;;;8.50;99.90;;;;;;5093387;28;20537;-79
2021/03/06 08:43:21;;;;;;;13.10;8.83;;;8.40;99.90;;;;;;5093159;28;20247;-78
2021/03/06 08:45:48;;;;;;;15.43;10.70;;;8.20;99.90;;;;;;5093158;28;20198;-78
2021/03/06 08:48:15;;;;;;;14.50;10.33;;;8.30;99.90;;;;;;5092594;28;20233;-79
2021/03/06 08:50:44;;;;;;;15.23;10.50;;;8.30;99.90;;;;;;5092638;28;20725;-78
2021/03/06 08:53:13;;;;;;;16.20;10.83;;;8.90;99.90;;;;;;5092904;28;20206;-78
2021/03/06 08:55:42;;;;;;;17.10;11.53;;;9.40;99.90;;;;;;5092711;28;20202;-79
2021/03/06 08:58:09;;;;;;;15.43;10.47;;;9.60;99.90;;;;;;5092901;28;20202;-83
2021/03/06 09:00:39;;;;;;;14.20;9.57;;;9.50;99.90;;;;;;5092902;28;20285;-79
2021/03/06 09:03:11;;;;;;;11.53;10.33;;;10.20;99.90;;;;;;5092524;28;20210;-79
2021/03/06 09:05:38;;;;;;;14.70;9.57;;;9.70;99.90;;;;;;5088987;28;20301;-80
2021/03/06 09:08:06;;;;;;;10.83;9.50;;;10.10;99.90;;;;;;5088023;28;20267;-79
2021/03/06 09:10:38;;;;;;;11.13;8.77;;;10.20;99.90;;;;;;5096179;28;20198;-80
2021/03/06 09:13:08;;;;;;;15.37;10.90;;;9.80;99.90;;;;;;5096927;28;20525;-80
2021/03/06 09:15:38;;;;;;;11.23;9.40;;;9.60;99.90;;;;;;5096116;28;20673;-80
2021/03/06 09:18:08;;;;;;;12.87;10.10;;;9.70;99.90;;;;;;5096559;28;20210;-80
2021/03/06 09:20:40;;;;;;;11.20;8.47;;;10.30;99.90;;;;;;5096312;28;20392;-80
2021/03/06 09:23:08;;;;;;;14.13;8.60;;;10.40;99.90;;;;;;5096189;28;20194;-80
2021/03/06 09:25:37;;;;;;;12.93;9.43;;;10.20;99.90;;;;;;5096170;28;20289;-80
2021/03/06 09:28:05;;;;;;;14.70;9.53;;;10.60;99.90;;;;;;5096183;28;20665;-79
2021/03/06 09:30:35;;;;;;;16.30;8.97;;;10.50;99.90;;;;;;5095927;28;20256;-80
2021/03/06 09:33:02;;;;;;;10.10;6.93;;;10.50;99.90;;;;;;5095909;28;20202;-80
2021/03/06 09:35:29;;;;;;;8.77;6.40;;;10.00;99.90;;;;;;5095764;28;20637;-80
2021/03/06 09:38:11;;;;;;;11.10;8.00;;;9.40;99.90;;;;;;5095487;28;20210;-81
2021/03/06 09:40:41;;;;;;;8.40;7.43;;;8.80;99.90;;;;;;5093515;28;20202;-80
2021/03/06 09:43:08;;;;;;;12.20;7.90;;;7.70;99.90;;;;;;5095763;28;20293;-80
2021/03/06 09:45:34;;;;;;;12.73;7.20;;;6.80;99.90;;;;;;5095948;28;20201;-81
2021/03/06 09:48:06;;;;;;;8.33;7.10;;;6.40;99.90;;;;;;5095252;28;20230;-83
2021/03/06 09:50:32;;;;;;;11.13;7.93;;;6.10;99.90;;;;;;5095528;28;20293;-80
2021/03/06 09:53:12;;;;;;;8.80;7.00;;;5.70;99.90;;;;;;5095225;28;20668;-80
2021/03/06 09:55:38;;;;;;;15.60;7.70;;;5.70;99.90;;;;;;5083030;28;20198;-81
2021/03/06 09:58:24;;;;;;;9.57;7.70;;;5.80;99.90;;;;;;5095490;28;20258;-81
2021/03/06 10:00:52;;;;;;;10.67;7.33;;;5.60;99.90;;;;;;5083907;28;20281;-80
2021/03/06 10:03:30;;;;;;;9.40;6.87;;;5.60;99.90;;;;;;5094886;28;20649;-81
2021/03/06 10:05:58;;;;;;;7.20;6.50;;;5.60;99.90;;;;;;5095220;28;20198;-80
2021/03/06 10:08:27;;;;;;;11.10;6.93;;;5.60;99.90;;;;;;5095017;28;20313;-81
2021/03/06 10:10:54;;;;;;;10.53;6.70;;;5.90;99.90;;;;;;5095413;28;20216;-81
2021/03/06 10:13:21;;;;;;;7.90;6.03;;;5.90;99.90;;;;;;5095019;28;20206;-80
2021/03/06 10:15:47;;;;;;;6.30;5.67;;;5.80;99.90;;;;;;5095206;28;20198;-81
2021/03/06 10:18:14;;;;;;;7.43;5.10;;;5.70;99.90;;;;;;5094337;28;20206;-81
2021/03/06 10:20:40;;;;;;;6.27;5.07;;;5.80;99.90;;;;;;5095175;28;20312;-80
2021/03/06 10:23:07;;;;;;;9.40;5.33;;;5.90;99.90;;;;;;5095098;28;20288;-80
2021/03/06 10:25:34;;;;;;;7.67;5.20;;;6.00;99.90;;;;;;5094771;28;20720;-80
2021/03/06 10:28:10;;;;;;;5.67;5.10;;;6.10;99.90;;;;;;5094551;28;20225;-81
2021/03/06 10:30:39;;;;;;;8.20;4.87;;;6.10;99.90;;;;;;5094516;28;20671;-81
2021/03/06 10:33:18;;;;;;;7.67;5.53;;;6.10;99.90;;;;;;5094936;28;20259;-81
2021/03/06 10:35:46;;;;;;;7.13;4.30;;;6.10;99.90;;;;;;5094805;28;20205;-80
2021/03/06 10:38:15;;;;;;;4.90;4.03;;;6.10;99.90;;;;;;5094515;28;20199;-80
2021/03/06 10:40:50;;;;;;;5.30;4.23;;;6.20;99.90;;;;;;5094794;28;20206;-81
2021/03/06 10:43:31;;;;;;;4.40;4.00;;;6.10;99.90;;;;;;5094728;28;20228;-80
2021/03/06 10:46:10;;;;;;;6.07;4.70;;;6.20;99.90;;;;;;5094760;28;20289;-80
2021/03/06 10:48:37;;;;;;;8.60;4.67;;;6.10;99.90;;;;;;5094434;28;20574;-79
2021/03/06 10:51:04;;;;;;;7.23;4.87;;;6.20;99.90;;;;;;5094516;28;20604;-80
2021/03/06 10:53:31;;;;;;;4.30;3.90;;;6.20;99.90;;;;;;5093931;28;20195;-80
2021/03/06 10:55:58;;;;;;;5.00;4.50;;;6.20;99.90;;;;;;5094247;28;20206;-80
2021/03/06 10:58:46;;;;;;;9.83;5.67;;;6.20;99.90;;;;;;5094184;28;20202;-79
2021/03/06 11:01:15;;;;;;;8.00;5.70;;;6.30;99.90;;;;;;5094085;28;20657;-80
2021/03/06 11:03:43;;;;;;;9.23;6.00;;;6.40;99.90;;;;;;5094013;28;20651;-81
2021/03/06 11:06:09;;;;;;;9.60;5.93;;;6.20;99.90;;;;;;5093963;28;20754;-81
2021/03/06 11:08:36;;;;;;;12.47;8.50;;;6.20;99.90;;;;;;5093867;28;20221;-81
2021/03/06 11:11:04;;;;;;;9.93;8.00;;;6.20;99.90;;;;;;5094137;28;20206;-81
2021/03/06 11:13:42;;;;;;;11.57;8.13;;;6.40;99.90;;;;;;5093928;28;20214;-80
2021/03/06 11:16:09;;;;;;;10.03;7.07;;;6.10;99.90;;;;;;5093735;28;20675;-81
2021/03/06 11:18:37;;;;;;;10.23;8.30;;;6.40;99.90;;;;;;5093948;28;20197;-80
2021/03/06 11:21:04;;;;;;;8.77;7.10;;;6.30;99.90;;;;;;5094063;28;20216;-81
2021/03/06 11:23:30;;;;;;;10.80;6.43;;;6.40;99.90;;;;;;5093486;28;20210;-80
2021/03/06 11:25:57;;;;;;;10.57;6.53;;;6.50;99.90;;;;;;5093711;28;20194;-79
2021/03/06 11:28:24;;;;;;;7.77;6.73;;;6.50;99.90;;;;;;5092801;28;20308;-81
2021/03/06 11:30:51;;;;;;;9.03;6.40;;;6.40;99.90;;;;;;5093834;28;20237;-81
2021/03/06 11:33:18;;;;;;;9.93;6.33;;;6.50;99.90;;;;;;5093838;28;20248;-80
2021/03/06 11:35:46;;;;;;;8.67;5.53;;;6.40;99.90;;;;;;5092750;28;20558;-81
2021/03/06 11:38:13;;;;;;;8.13;5.47;;;6.40;99.90;;;;;;5093292;28;20202;-80
2021/03/06 11:40:42;;;;;;;6.83;5.73;;;6.50;99.90;;;;;;5093726;28;20202;-80
2021/03/06 11:43:09;;;;;;;8.23;5.53;;;6.50;99.90;;;;;;5093519;28;20293;-80
2021/03/06 11:45:36;;;;;;;7.60;5.40;;;6.60;99.90;;;;;;5093557;28;20616;-83
2021/03/06 11:48:04;;;;;;;7.53;6.03;;;6.60;99.90;;;;;;5093253;28;20232;-79
2021/03/06 11:50:33;;;;;;;8.87;5.23;;;6.40;99.90;;;;;;5093213;28;20206;-80
2021/03/06 11:53:00;;;;;;;6.60;5.07;;;6.70;99.90;;;;;;5093454;28;20294;-81
2021/03/06 11:55:26;;;;;;;6.27;5.43;;;6.60;99.90;;;;;;5093683;28;20208;-80
2021/03/06 11:57:53;;;;;;;8.43;4.97;;;6.60;99.90;;;;;;5094059;28;20237;-82
2021/03/06 12:00:21;;;;;;;4.93;4.10;;;6.60;99.90;;;;;;5093494;28;20194;-80
2021/03/06 12:02:49;;;;;;;5.90;4.60;;;6.60;99.90;;;;;;5093536;28;20339;-80
2021/03/06 12:05:15;;;;;;;9.07;4.70;;;6.60;99.90;;;;;;5092740;28;20224;-81
2021/03/06 12:07:43;;;;;;;4.93;4.23;;;6.50;99.90;;;;;;5093324;28;20225;-80
2021/03/06 12:10:11;;;;;;;6.07;4.43;;;6.50;99.90;;;;;;5093144;28;20276;-82
2021/03/06 12:12:38;;;;;;;5.63;4.70;;;6.60;99.90;;;;;;5093030;28;20195;-80
2021/03/06 12:15:06;;;;;;;5.20;4.70;;;6.70;99.90;;;;;;5093225;28;20206;-81
2021/03/06 12:17:32;;;;;;;6.77;4.30;;;6.80;99.90;;;;;;5092815;28;20675;-80
2021/03/06 12:20:00;;;;;;;5.87;4.27;;;6.80;99.90;;;;;;5093105;28;20202;-80
2021/03/06 12:22:26;;;;;;;6.57;4.20;;;6.90;99.90;;;;;;5092855;28;20633;-80
2021/03/06 12:24:53;;;;;;;10.97;5.13;;;7.00;99.20;;;;;;5093182;28;20285;-81
2021/03/06 12:27:19;;;;;;;4.57;4.07;;;7.20;99.10;;;;;;5092942;28;20309;-80
2021/03/06 12:29:45;;;;;;;9.20;4.43;;;7.10;98.90;;;;;;5093188;28;20251;-81
2021/03/06 12:32:12;;;;;;;8.17;4.23;;;7.20;98.20;;;;;;5092936;28;20206;-81
2021/03/06 12:34:38;;;;;;;7.43;4.50;;;7.00;98.20;;;;;;5093133;28;20240;-80
2021/03/06 12:37:06;;;;;;;4.90;3.50;;;7.00;98.40;;;;;;5092575;28;20263;-81
2021/03/06 12:39:32;;;;;;;6.30;4.60;;;7.10;98.50;;;;;;5093381;28;20194;-81
2021/03/06 12:41:59;;;;;;;5.80;4.73;;;7.20;99.10;;;;;;5097037;28;20194;-80
2021/03/06 12:44:26;;;;;;;4.87;4.23;;;7.20;99.20;;;;;;5096715;28;20198;-82
2021/03/06 12:46:52;;;;;;;6.87;4.73;;;7.20;99.90;;;;;;5096626;28;20202;-80